Time;durP1;ratioP1;P1;durP2;ratioP2;P2;SDS_P1;SDS_P2;PMS_P1;PMS_P2;Temp;Humidity;BMP_temperature;BMP_pressure;BME280_temperature;BME280_humidity;BME280_pressure;Samples;Min_cycle;Max_cycle;Signal;HPM_P1;HPM_P2
2021/07/21 00:01:28;;;;;;;12.00;6.07;;;24.00;99.90;;;;;;4974187;28;20038;-78
2021/07/21 00:03:54;;;;;;;21.48;7.03;;;24.00;99.90;;;;;;4974245;28;20106;-77
2021/07/21 00:06:20;;;;;;;12.30;6.55;;;23.90;99.90;;;;;;4974593;28;20027;-81
2021/07/21 00:08:45;;;;;;;15.40;6.45;;;23.80;99.90;;;;;;4974145;28;20027;-77
2021/07/21 00:13:57;;;;;;;15.00;5.93;;;23.80;99.90;;;;;;4974256;28;20057;-77
2021/07/21 00:16:34;;;;;;;15.68;6.75;;;23.80;99.90;;;;;;4973463;28;20022;-77
2021/07/21 00:19:06;;;;;;;15.13;6.30;;;23.80;99.90;;;;;;4974122;28;20534;-78
2021/07/21 00:21:32;;;;;;;19.73;6.28;;;23.70;99.90;;;;;;4972793;28;20476;-77
2021/07/21 00:23:57;;;;;;;15.85;6.57;;;23.70;99.90;;;;;;4973719;28;20055;-79
2021/07/21 00:26:23;;;;;;;13.98;6.03;;;23.70;99.90;;;;;;4973900;28;20543;-79
2021/07/21 00:28:49;;;;;;;13.18;6.82;;;23.60;99.90;;;;;;4973503;28;20050;-76
2021/07/21 00:31:16;;;;;;;15.35;7.15;;;23.60;99.90;;;;;;4972741;28;20504;-79
2021/07/21 00:33:43;;;;;;;11.48;6.82;;;23.60;99.90;;;;;;4973796;28;20460;-80
2021/07/21 00:36:08;;;;;;;15.35;7.88;;;23.50;99.90;;;;;;4956309;28;20030;-83
2021/07/21 00:38:34;;;;;;;11.63;6.72;;;23.50;99.90;;;;;;4973695;28;20057;-83
2021/07/21 00:41:00;;;;;;;14.13;6.78;;;23.50;99.90;;;;;;4973034;28;20034;-78
2021/07/21 00:43:27;;;;;;;13.20;6.63;;;23.40;99.90;;;;;;4959636;28;20046;-86
2021/07/21 00:45:53;;;;;;;13.05;6.85;;;23.40;99.90;;;;;;4973443;28;20094;-79
2021/07/21 00:48:19;;;;;;;21.70;6.85;;;23.40;99.90;;;;;;4973222;28;20476;-79
2021/07/21 00:50:45;;;;;;;20.40;6.90;;;23.40;99.90;;;;;;4972747;28;20498;-77
2021/07/21 00:53:11;;;;;;;17.33;7.10;;;23.40;99.90;;;;;;4973334;28;20029;-78
2021/07/21 00:55:37;;;;;;;14.40;7.22;;;23.40;99.90;;;;;;4973038;28;20030;-77
2021/07/21 00:58:03;;;;;;;14.65;7.43;;;23.40;99.90;;;;;;4972220;28;20026;-79
2021/07/21 01:00:29;;;;;;;20.20;6.63;;;23.30;99.90;;;;;;4972231;28;20035;-90
2021/07/21 01:02:55;;;;;;;14.85;6.93;;;23.40;99.90;;;;;;4973171;28;20097;-90
2021/07/21 01:05:28;;;;;;;22.75;7.78;;;23.30;99.90;;;;;;4971338;28;20019;-80
2021/07/21 01:07:53;;;;;;;15.57;7.53;;;23.30;99.90;;;;;;4965539;28;20034;-78
2021/07/21 01:10:21;;;;;;;16.23;7.13;;;23.30;99.90;;;;;;4973315;28;20472;-77
2021/07/21 01:13:03;;;;;;;16.95;7.47;;;23.20;99.90;;;;;;4973107;28;20033;-78
2021/07/21 01:15:43;;;;;;;13.95;7.88;;;23.30;99.90;;;;;;4961328;28;20022;-82
2021/07/21 01:18:14;;;;;;;14.05;7.22;;;23.20;99.90;;;;;;4972783;28;20081;-77
2021/07/21 01:21:15;;;;;;;12.45;7.35;;;23.20;99.90;;;;;;4973128;28;20045;-78
2021/07/21 01:24:13;;;;;;;13.90;8.52;;;23.30;99.90;;;;;;4971970;28;20027;-87
2021/07/21 01:26:51;;;;;;;18.35;8.30;;;23.30;99.90;;;;;;4922453;28;20039;-77
2021/07/21 01:29:20;;;;;;;14.95;7.25;;;23.30;99.90;;;;;;4972942;28;20027;-78
2021/07/21 01:31:49;;;;;;;18.58;8.80;;;23.30;99.90;;;;;;4973187;28;20019;-78
2021/07/21 01:34:18;;;;;;;15.77;8.27;;;23.30;99.90;;;;;;4976633;28;20097;-78
2021/07/21 01:36:51;;;;;;;19.63;8.52;;;23.30;99.90;;;;;;4976262;28;20022;-77
2021/07/21 01:39:20;;;;;;;17.27;7.65;;;23.20;99.90;;;;;;4976619;28;20026;-83
2021/07/21 01:41:50;;;;;;;15.70;7.60;;;23.20;99.90;;;;;;4976688;28;20090;-78
2021/07/21 01:44:22;;;;;;;13.57;8.77;;;23.30;99.90;;;;;;4976349;28;20042;-77
2021/07/21 01:46:52;;;;;;;14.27;7.18;;;23.20;99.90;;;;;;4977752;28;20018;-88
2021/07/21 01:49:21;;;;;;;15.18;7.82;;;23.20;99.90;;;;;;4976011;28;20106;-77
2021/07/21 01:51:47;;;;;;;15.68;8.82;;;23.10;99.90;;;;;;4976121;28;20026;-78
2021/07/21 01:54:15;;;;;;;16.73;7.95;;;23.20;99.90;;;;;;4976378;28;20042;-78
2021/07/21 01:56:41;;;;;;;16.52;8.35;;;23.20;99.90;;;;;;4976346;28;20022;-78
2021/07/21 01:59:08;;;;;;;11.02;7.68;;;23.20;99.90;;;;;;4976268;28;20031;-77
2021/07/21 02:01:36;;;;;;;13.32;7.65;;;23.10;99.90;;;;;;4975875;28;20074;-79
2021/07/21 02:04:05;;;;;;;16.80;7.88;;;23.20;99.90;;;;;;4976198;28;20471;-87
2021/07/21 02:06:32;;;;;;;14.13;8.48;;;23.10;99.90;;;;;;4975845;28;20045;-85
2021/07/21 02:08:59;;;;;;;21.15;8.88;;;23.10;99.90;;;;;;4975826;28;20019;-77
2021/07/21 02:11:26;;;;;;;12.40;7.43;;;23.10;99.90;;;;;;4975738;28;20023;-78
2021/07/21 02:13:56;;;;;;;14.43;7.72;;;23.10;99.90;;;;;;4976336;28;20383;-80
2021/07/21 02:16:23;;;;;;;14.25;7.88;;;23.10;99.90;;;;;;4976067;28;20383;-78
2021/07/21 02:18:51;;;;;;;14.52;8.13;;;23.10;99.90;;;;;;4976055;28;20029;-77
2021/07/21 02:21:17;;;;;;;16.27;7.80;;;23.10;99.90;;;;;;4972162;28;20122;-78
2021/07/21 02:23:47;;;;;;;14.38;7.60;;;23.10;99.90;;;;;;4974530;28;20518;-82
2021/07/21 02:26:14;;;;;;;13.07;6.75;;;23.10;99.90;;;;;;4975620;28;20027;-81
2021/07/21 02:28:39;;;;;;;13.38;7.25;;;23.20;99.90;;;;;;4975791;28;20037;-78
2021/07/21 02:31:09;;;;;;;21.40;8.18;;;23.10;99.90;;;;;;4975967;28;20022;-81
2021/07/21 02:33:41;;;;;;;15.43;7.53;;;23.10;99.90;;;;;;4975643;28;20113;-79
2021/07/21 02:36:06;;;;;;;10.85;7.10;;;23.10;99.90;;;;;;4975520;28;20038;-80
2021/07/21 02:38:32;;;;;;;13.50;7.85;;;23.20;99.90;;;;;;4975689;28;20035;-77
2021/07/21 02:40:58;;;;;;;12.45;8.30;;;23.10;99.90;;;;;;4975819;28;20035;-78
2021/07/21 02:43:24;;;;;;;14.45;6.90;;;23.10;99.90;;;;;;4975903;28;20476;-76
2021/07/21 02:45:49;;;;;;;14.57;7.65;;;23.10;99.90;;;;;;4974668;28;20073;-83
2021/07/21 02:48:15;;;;;;;13.50;8.40;;;23.00;99.90;;;;;;4957993;28;20078;-87
2021/07/21 02:50:47;;;;;;;15.85;7.93;;;23.00;99.90;;;;;;4957940;28;20026;-76
2021/07/21 02:53:19;;;;;;;17.77;8.02;;;23.00;99.90;;;;;;4974889;28;20025;-76
2021/07/21 02:55:51;;;;;;;18.92;7.63;;;23.00;99.90;;;;;;4975054;28;20039;-79
2021/07/21 02:58:16;;;;;;;;;;;23.00;99.90;;;;;;4958767;28;20121;-78
2021/07/21 03:00:43;;;;;;;11.07;7.25;;;23.00;99.90;;;;;;4975162;28;20041;-82
2021/07/21 03:03:10;;;;;;;26.08;8.60;;;23.00;99.90;;;;;;4975243;28;20015;-81
2021/07/21 03:05:37;;;;;;;12.63;7.75;;;23.00;99.90;;;;;;4975242;28;20514;-76
2021/07/21 03:08:03;;;;;;;13.80;7.68;;;23.00;99.90;;;;;;4975167;28;20018;-80
2021/07/21 03:10:29;;;;;;;10.68;7.35;;;22.90;99.90;;;;;;4974664;28;20026;-78
2021/07/21 03:13:08;;;;;;;17.55;7.72;;;23.00;99.90;;;;;;4974677;28;20483;-79
2021/07/21 03:15:38;;;;;;;16.77;6.93;;;23.00;99.90;;;;;;4974906;28;20035;-76
2021/07/21 03:18:08;;;;;;;21.48;8.40;;;23.00;99.90;;;;;;4974684;28;20050;-78
2021/07/21 03:20:34;;;;;;;20.75;8.95;;;23.00;99.90;;;;;;4974597;28;20052;-77
2021/07/21 03:23:02;;;;;;;15.02;7.70;;;23.00;99.90;;;;;;4961672;28;20050;-80
2021/07/21 03:25:29;;;;;;;16.50;7.57;;;22.90;99.90;;;;;;4975027;28;20018;-78
2021/07/21 03:27:55;;;;;;;17.65;8.35;;;22.90;99.90;;;;;;4974567;28;20031;-79
2021/07/21 03:30:23;;;;;;;13.10;8.38;;;22.80;99.90;;;;;;4973783;28;20033;-77
2021/07/21 03:32:51;;;;;;;16.55;7.90;;;22.70;99.90;;;;;;4965847;28;20027;-76
2021/07/21 03:35:22;;;;;;;17.83;6.90;;;22.70;99.90;;;;;;4972964;28;20120;-83
2021/07/21 03:37:47;;;;;;;16.73;7.83;;;22.70;99.90;;;;;;4974474;28;20027;-76
2021/07/21 03:40:16;;;;;;;11.85;8.20;;;22.70;99.90;;;;;;4974391;28;20084;-79
2021/07/21 03:42:42;;;;;;;16.40;7.70;;;22.60;99.90;;;;;;4974441;28;20033;-77
2021/07/21 03:45:11;;;;;;;14.52;8.13;;;22.60;99.90;;;;;;4974456;28;20058;-79
2021/07/21 03:47:40;;;;;;;18.10;7.95;;;22.60;99.90;;;;;;4974741;28;20353;-80
2021/07/21 03:50:07;;;;;;;12.50;8.07;;;22.60;99.90;;;;;;4974062;28;20022;-76
2021/07/21 03:52:34;;;;;;;13.90;7.82;;;22.60;99.90;;;;;;4974211;28;20085;-77
2021/07/21 03:55:02;;;;;;;17.85;7.72;;;22.60;99.90;;;;;;4974419;28;20054;-80
2021/07/21 03:57:28;;;;;;;12.23;8.25;;;22.60;99.90;;;;;;4973613;28;20042;-77
2021/07/21 03:59:54;;;;;;;12.63;8.23;;;22.60;99.90;;;;;;4973859;28;20098;-83
2021/07/21 04:02:21;;;;;;;16.38;7.72;;;22.60;99.90;;;;;;4974442;28;20154;-79
2021/07/21 04:04:48;;;;;;;13.80;7.90;;;22.60;99.90;;;;;;4973976;28;20019;-77
2021/07/21 04:07:16;;;;;;;21.13;8.73;;;22.60;99.90;;;;;;4974270;28;20022;-78
2021/07/21 04:09:43;;;;;;;20.17;8.43;;;22.60;99.90;;;;;;4973950;28;20022;-79
2021/07/21 04:12:10;;;;;;;22.25;8.32;;;22.70;99.90;;;;;;4956601;28;20053;-79
2021/07/21 04:14:36;;;;;;;16.95;8.65;;;22.70;99.90;;;;;;4973917;28;20110;-78
2021/07/21 04:17:04;;;;;;;22.88;7.60;;;22.80;99.90;;;;;;4973831;28;20066;-84
2021/07/21 04:19:30;;;;;;;14.30;7.65;;;22.90;99.90;;;;;;4973787;28;20015;-77
2021/07/21 04:21:56;;;;;;;18.77;7.93;;;22.90;99.90;;;;;;4967294;28;20039;-77
2021/07/21 04:24:23;;;;;;;13.45;8.45;;;23.10;99.90;;;;;;4956280;28;20019;-77
2021/07/21 04:26:50;;;;;;;16.70;7.85;;;23.20;99.90;;;;;;4973141;28;20033;-75
2021/07/21 04:29:20;;;;;;;17.77;8.10;;;23.20;99.90;;;;;;4971167;28;20384;-77
2021/07/21 04:31:48;;;;;;;13.05;8.07;;;23.30;99.90;;;;;;4973722;28;20113;-76
2021/07/21 04:34:14;;;;;;;16.35;8.70;;;23.40;99.90;;;;;;4973371;28;20022;-76
2021/07/21 04:36:41;;;;;;;18.77;8.65;;;23.60;99.90;;;;;;4955631;28;20081;-76
2021/07/21 04:39:08;;;;;;;12.55;8.43;;;23.70;99.90;;;;;;4973769;28;20038;-76
2021/07/21 04:41:34;;;;;;;17.05;9.35;;;23.70;99.90;;;;;;4973309;28;20046;-77
2021/07/21 04:44:02;;;;;;;18.77;8.48;;;23.80;99.90;;;;;;4973141;28;20055;-76
2021/07/21 04:46:30;;;;;;;15.43;8.27;;;24.20;99.90;;;;;;4973528;28;20041;-77
2021/07/21 04:48:57;;;;;;;11.93;8.13;;;24.80;99.90;;;;;;4973651;28;20034;-78
2021/07/21 04:51:24;;;;;;;13.13;8.30;;;25.00;99.90;;;;;;4965590;28;20042;-76
2021/07/21 04:54:00;;;;;;;15.63;7.75;;;25.20;99.90;;;;;;4973269;28;20106;-77
2021/07/21 04:56:25;;;;;;;15.80;8.35;;;25.70;99.90;;;;;;4973435;28;20050;-77
2021/07/21 04:58:51;;;;;;;23.65;8.90;;;26.20;99.90;;;;;;4973451;28;20038;-76
2021/07/21 05:01:17;;;;;;;14.73;8.48;;;26.70;99.90;;;;;;4973357;28;20038;-77
2021/07/21 05:03:43;;;;;;;18.48;7.93;;;26.80;99.90;;;;;;4973484;28;20030;-78
2021/07/21 05:06:09;;;;;;;14.35;8.43;;;27.00;99.90;;;;;;4973312;28;20039;-78
2021/07/21 05:08:35;;;;;;;20.25;8.52;;;27.20;99.90;;;;;;4976027;28;20559;-76
2021/07/21 05:11:00;;;;;;;14.93;7.82;;;27.40;99.90;;;;;;4977156;28;20142;-77
2021/07/21 05:13:26;;;;;;;15.45;8.63;;;26.60;99.90;;;;;;4975888;28;20412;-77
2021/07/21 05:15:52;;;;;;;13.00;8.05;;;26.20;99.90;;;;;;4976306;28;20388;-88
2021/07/21 05:18:18;;;;;;;20.13;8.82;;;25.50;99.90;;;;;;4976394;28;20030;-79
2021/07/21 05:20:44;;;;;;;12.65;8.18;;;25.20;99.90;;;;;;4975361;28;20046;-78
2021/07/21 05:23:10;;;;;;;20.00;8.27;;;25.00;99.90;;;;;;4977633;28;20026;-78
2021/07/21 05:25:37;;;;;;;15.05;8.57;;;25.30;99.90;;;;;;4976962;28;20058;-77
2021/07/21 05:28:05;;;;;;;15.90;8.82;;;26.10;99.90;;;;;;4975348;28;20498;-78
2021/07/21 05:30:31;;;;;;;20.67;8.55;;;27.30;99.90;;;;;;4975082;28;20023;-78
2021/07/21 05:32:56;;;;;;;19.25;8.38;;;28.70;99.90;;;;;;4975226;28;20031;-78
2021/07/21 05:35:22;;;;;;;18.27;8.20;;;29.50;98.80;;;;;;4957851;28;20038;-77
2021/07/21 05:37:48;;;;;;;13.70;8.20;;;29.90;98.00;;;;;;4945777;28;20069;-77
2021/07/21 05:40:13;;;;;;;17.48;8.23;;;30.50;97.10;;;;;;4975474;28;20034;-78
2021/07/21 05:42:39;;;;;;;13.00;8.10;;;31.00;96.60;;;;;;4975928;28;20031;-87
2021/07/21 05:45:05;;;;;;;20.85;7.95;;;31.30;95.50;;;;;;4958854;28;20050;-79
2021/07/21 05:47:31;;;;;;;15.98;7.70;;;32.20;94.60;;;;;;4975343;28;20054;-78
2021/07/21 05:49:56;;;;;;;17.90;8.10;;;32.90;93.10;;;;;;4975473;28;20713;-82
2021/07/21 05:52:22;;;;;;;10.30;7.13;;;33.30;92.40;;;;;;4976366;28;20038;-86
2021/07/21 05:54:48;;;;;;;14.10;7.57;;;34.30;91.30;;;;;;4975932;28;20034;-90
2021/07/21 05:57:14;;;;;;;11.75;7.55;;;34.60;90.40;;;;;;4976542;28;20109;-77
2021/07/21 05:59:39;;;;;;;12.60;7.05;;;34.20;90.20;;;;;;4976284;28;20030;-77
2021/07/21 06:02:05;;;;;;;16.90;7.80;;;33.70;90.40;;;;;;4976041;28;20031;-78
2021/07/21 06:04:31;;;;;;;13.77;7.43;;;33.80;90.30;;;;;;4959474;28;20027;-78
2021/07/21 06:06:56;;;;;;;14.38;7.30;;;34.20;90.10;;;;;;4969404;28;20027;-85
2021/07/21 06:09:22;;;;;;;12.07;7.88;;;35.00;87.80;;;;;;4974793;28;20464;-90
2021/07/21 06:11:48;;;;;;;11.88;8.07;;;34.10;88.50;;;;;;4976684;28;20061;-77
2021/07/21 06:14:14;;;;;;;16.42;7.78;;;35.20;87.20;;;;;;4976490;28;20423;-78
2021/07/21 06:16:40;;;;;;;13.52;7.15;;;35.40;86.30;;;;;;4976034;28;20097;-78
2021/07/21 06:19:05;;;;;;;14.55;7.95;;;35.80;85.10;;;;;;4958670;28;20027;-78
2021/07/21 06:21:32;;;;;;;9.45;6.75;;;35.90;84.30;;;;;;4976681;28;20039;-78
2021/07/21 06:23:57;;;;;;;19.25;7.85;;;36.30;83.30;;;;;;4976932;28;20026;-78
2021/07/21 06:26:23;;;;;;;14.25;7.68;;;35.30;84.20;;;;;;4976672;28;20023;-92
2021/07/21 06:28:49;;;;;;;12.93;7.85;;;35.90;83.90;;;;;;4977108;28;20069;-82
2021/07/21 06:31:16;;;;;;;11.60;7.82;;;36.50;82.50;;;;;;4977032;28;20034;-78
2021/07/21 06:33:42;;;;;;;10.45;7.60;;;36.00;82.10;;;;;;4976834;28;20023;-76
2021/07/21 06:36:07;;;;;;;14.18;7.60;;;36.10;82.90;;;;;;4976231;28;20058;-90
2021/07/21 06:38:33;;;;;;;15.32;7.93;;;36.80;80.90;;;;;;4975790;28;20102;-79
2021/07/21 06:40:59;;;;;;;10.73;7.57;;;36.50;81.10;;;;;;4975465;28;20030;-77
2021/07/21 06:43:25;;;;;;;16.50;7.55;;;36.90;79.70;;;;;;4975771;28;20023;-78
2021/07/21 06:45:51;;;;;;;15.32;8.00;;;37.10;79.60;;;;;;4975847;28;20085;-77
2021/07/21 06:48:30;;;;;;;13.00;8.07;;;37.60;79.00;;;;;;5076803;27;20891;-80
2021/07/21 06:50:55;;;;;;;189.45;31.35;;;38.30;77.90;;;;;;5069768;28;20031;-75
2021/07/21 06:53:21;;;;;;;44.55;9.18;;;39.40;76.40;;;;;;5067377;28;20428;-76
2021/07/21 06:55:47;;;;;;;12.52;8.10;;;40.20;75.10;;;;;;5067087;28;20028;-76
2021/07/21 06:58:12;;;;;;;14.90;7.78;;;40.80;72.50;;;;;;5062565;28;20112;-80
2021/07/21 07:00:38;;;;;;;12.30;7.20;;;40.50;72.10;;;;;;5057713;28;20474;-77
2021/07/21 07:03:04;;;;;;;13.07;7.43;;;40.60;71.80;;;;;;5051208;28;20029;-79
2021/07/21 07:05:30;;;;;;;12.88;7.63;;;40.80;71.70;;;;;;5068677;28;20032;-77
2021/07/21 07:07:55;;;;;;;19.23;7.85;;;40.70;70.80;;;;;;5053014;28;20036;-78
2021/07/21 07:10:21;;;;;;;13.05;7.55;;;39.90;71.20;;;;;;5052653;28;20108;-81
2021/07/21 07:12:47;;;;;;;15.85;8.25;;;38.90;72.50;;;;;;5050906;28;20031;-77
2021/07/21 07:15:13;;;;;;;14.90;7.95;;;37.80;75.30;;;;;;5048796;28;20018;-77
2021/07/21 07:17:39;;;;;;;14.48;8.23;;;36.80;76.10;;;;;;5048126;28;20033;-79
2021/07/21 07:20:06;;;;;;;14.65;8.68;;;35.60;77.30;;;;;;5047889;28;20096;-77
2021/07/21 07:22:32;;;;;;;15.25;8.20;;;34.30;79.40;;;;;;5042789;28;20017;-77
2021/07/21 07:25:00;;;;;;;13.23;8.40;;;32.80;83.00;;;;;;5046377;28;20029;-77
2021/07/21 07:27:27;;;;;;;17.45;9.32;;;32.30;84.20;;;;;;5048924;28;20026;-77
2021/07/21 07:29:53;;;;;;;13.27;8.90;;;31.90;85.10;;;;;;5050091;28;20027;-77
2021/07/21 07:32:19;;;;;;;17.25;9.07;;;31.80;85.60;;;;;;5052024;28;20120;-78
2021/07/21 07:34:44;;;;;;;19.15;9.98;;;31.20;86.30;;;;;;5049038;28;20473;-79
2021/07/21 07:37:10;;;;;;;16.92;9.60;;;31.00;86.80;;;;;;5051446;28;20131;-79
2021/07/21 07:39:36;;;;;;;19.20;9.60;;;30.70;87.90;;;;;;5050360;28;20083;-79
2021/07/21 07:42:02;;;;;;;14.90;9.75;;;30.70;88.00;;;;;;5050103;28;20559;-79
2021/07/21 07:44:29;;;;;;;15.00;9.57;;;30.80;87.80;;;;;;5051829;28;20017;-79
2021/07/21 07:46:55;;;;;;;14.90;9.55;;;30.90;87.90;;;;;;5050058;28;20045;-78
2021/07/21 07:49:20;;;;;;;19.30;10.52;;;30.70;87.80;;;;;;5049867;28;20155;-79
2021/07/21 07:51:46;;;;;;;23.20;9.90;;;31.00;88.40;;;;;;5048572;28;20729;-81
2021/07/21 07:54:12;;;;;;;42.35;10.30;;;31.20;87.60;;;;;;5049189;28;20090;-80
2021/07/21 07:56:38;;;;;;;14.77;9.85;;;31.10;87.30;;;;;;5064200;28;20082;-79
2021/07/21 07:59:03;;;;;;;17.23;10.23;;;30.90;87.80;;;;;;5041957;28;20021;-81
2021/07/21 08:01:30;;;;;;;17.13;9.32;;;30.90;88.10;;;;;;5034905;28;20382;-80
2021/07/21 08:03:55;;;;;;;14.55;9.70;;;31.10;87.70;;;;;;5035313;28;20029;-81
2021/07/21 08:06:21;;;;;;;16.38;9.90;;;31.00;87.80;;;;;;5032730;28;20021;-83
2021/07/21 08:08:47;;;;;;;14.13;9.23;;;30.60;89.20;;;;;;5037640;28;20025;-77
2021/07/21 08:11:13;;;;;;;15.38;9.27;;;30.60;89.40;;;;;;5034827;28;20036;-78
2021/07/21 08:13:40;;;;;;;15.13;10.15;;;30.80;88.90;;;;;;5034302;28;20075;-80
2021/07/21 08:16:06;;;;;;;22.30;10.02;;;30.80;89.70;;;;;;5033545;28;20014;-84
2021/07/21 08:18:32;;;;;;;16.48;9.85;;;31.10;89.80;;;;;;5036286;28;20099;-80
2021/07/21 08:20:57;;;;;;;19.58;9.45;;;31.20;88.80;;;;;;5034143;28;20026;-76
2021/07/21 08:23:23;;;;;;;17.63;9.63;;;31.20;88.70;;;;;;5035920;28;20033;-78
2021/07/21 08:25:49;;;;;;;25.77;9.38;;;31.20;88.70;;;;;;5030468;28;20026;-78
2021/07/21 08:28:15;;;;;;;15.35;9.80;;;31.10;88.70;;;;;;5027853;28;20377;-79
2021/07/21 08:30:42;;;;;;;18.48;9.30;;;31.20;88.40;;;;;;5029218;28;20609;-79
2021/07/21 08:33:08;;;;;;;17.40;9.20;;;31.10;87.90;;;;;;5031134;28;20047;-79
2021/07/21 08:35:34;;;;;;;18.77;9.73;;;30.70;88.30;;;;;;5033559;28;20030;-80
2021/07/21 08:38:01;;;;;;;21.80;9.77;;;30.40;88.40;;;;;;5030041;28;20021;-81
2021/07/21 08:40:29;;;;;;;20.85;10.90;;;30.20;88.70;;;;;;5031829;28;20041;-79
2021/07/21 08:42:55;;;;;;;20.08;10.30;;;30.10;89.40;;;;;;5039717;28;20028;-77
2021/07/21 08:45:22;;;;;;;21.63;10.25;;;30.00;90.00;;;;;;5046281;28;20029;-78
2021/07/21 08:47:48;;;;;;;15.75;10.50;;;29.90;90.20;;;;;;5037109;28;20072;-74
2021/07/21 08:50:14;;;;;;;15.23;9.85;;;29.90;90.30;;;;;;5033769;28;20020;-75
2021/07/21 08:52:40;;;;;;;21.35;9.82;;;30.10;90.50;;;;;;5037125;28;20025;-77
2021/07/21 08:55:11;;;;;;;13.60;9.75;;;30.20;90.30;;;;;;5036721;28;20028;-79
2021/07/21 08:57:37;;;;;;;24.30;10.13;;;30.40;90.10;;;;;;5052388;28;20029;-78
2021/07/21 09:00:09;;;;;;;18.35;8.85;;;30.50;90.20;;;;;;5041285;28;20056;-80
2021/07/21 09:02:37;;;;;;;16.95;10.07;;;30.40;89.90;;;;;;5043513;28;20033;-77
2021/07/21 09:05:05;;;;;;;16.00;9.27;;;30.50;89.40;;;;;;5040094;28;20112;-84
2021/07/21 09:07:31;;;;;;;16.58;9.52;;;30.50;88.70;;;;;;5032326;28;20033;-81
2021/07/21 09:09:56;;;;;;;15.93;10.10;;;30.30;89.20;;;;;;5063880;28;20022;-77
2021/07/21 09:12:22;;;;;;;25.13;9.55;;;30.20;89.60;;;;;;5034750;28;20036;-76
2021/07/21 09:14:48;;;;;;;16.27;9.20;;;30.20;89.90;;;;;;5031910;28;20009;-84
2021/07/21 09:17:20;;;;;;;18.00;9.55;;;30.40;89.60;;;;;;5030926;28;20022;-77
2021/07/21 09:19:50;;;;;;;20.52;8.98;;;30.70;89.40;;;;;;5030405;28;20021;-75
2021/07/21 09:22:18;;;;;;;14.43;9.73;;;30.80;88.70;;;;;;5032374;28;20017;-76
2021/07/21 09:24:45;;;;;;;16.45;8.65;;;31.10;89.20;;;;;;5032381;28;20013;-75
2021/07/21 09:27:11;;;;;;;14.88;9.45;;;31.10;89.00;;;;;;5032621;28;20037;-80
2021/07/21 09:29:40;;;;;;;17.25;9.38;;;31.20;88.50;;;;;;5032857;28;20025;-75
2021/07/21 09:32:06;;;;;;;19.38;9.18;;;31.40;88.90;;;;;;5032764;28;20026;-76
2021/07/21 09:34:34;;;;;;;15.25;8.68;;;31.60;87.60;;;;;;5033068;28;20033;-78
2021/07/21 09:37:12;;;;;;;18.35;9.48;;;31.60;88.20;;;;;;5033080;28;20025;-81
2021/07/21 09:39:40;;;;;;;15.52;9.57;;;31.70;88.10;;;;;;5030590;28;20462;-79
2021/07/21 09:42:07;;;;;;;17.27;9.00;;;31.70;87.80;;;;;;5031444;28;20032;-79
2021/07/21 09:44:46;;;;;;;14.95;9.85;;;31.70;88.00;;;;;;5035150;28;20030;-79
2021/07/21 09:47:13;;;;;;;22.33;9.32;;;31.60;87.50;;;;;;5032664;28;20038;-79
2021/07/21 09:49:39;;;;;;;14.57;9.52;;;31.50;88.40;;;;;;5032045;28;20143;-81
2021/07/21 09:52:22;;;;;;;20.50;9.55;;;31.60;88.20;;;;;;5033208;28;20090;-79
2021/07/21 09:55:13;;;;;;;9.85;7.93;;;31.70;88.80;;;;;;5029313;28;20029;-82
2021/07/21 09:57:39;;;;;;;14.32;8.98;;;31.70;87.00;;;;;;5023436;28;20017;-79
2021/07/21 10:00:27;;;;;;;16.60;9.98;;;31.80;88.00;;;;;;5031186;28;20029;-80
2021/07/21 10:03:13;;;;;;;16.42;9.10;;;31.90;87.80;;;;;;5064147;28;20053;-79
2021/07/21 10:05:59;;;;;;;15.32;8.73;;;31.60;87.20;;;;;;5030117;28;20021;-78
2021/07/21 10:08:41;;;;;;;12.63;8.27;;;31.20;88.20;;;;;;5035126;28;20068;-77
2021/07/21 10:11:31;;;;;;;20.55;9.18;;;31.20;88.50;;;;;;5028591;28;20034;-77
2021/07/21 10:14:03;;;;;;;16.55;8.73;;;31.40;89.10;;;;;;5040822;28;20057;-79
2021/07/21 10:16:42;;;;;;;19.98;8.65;;;31.40;87.90;;;;;;5034059;28;20464;-79
2021/07/21 10:19:28;;;;;;;17.60;8.65;;;31.20;88.00;;;;;;5051888;28;20060;-80
2021/07/21 10:22:02;;;;;;;17.98;8.52;;;31.20;88.60;;;;;;5032748;28;20374;-77
2021/07/21 10:24:33;;;;;;;12.60;8.65;;;31.00;87.90;;;;;;5034144;28;20115;-78
2021/07/21 10:27:00;;;;;;;18.30;9.13;;;31.00;88.10;;;;;;5035650;28;20037;-78
2021/07/21 10:29:27;;;;;;;17.35;8.35;;;30.90;88.40;;;;;;5033286;28;20268;-80
2021/07/21 10:31:53;;;;;;;16.95;8.82;;;31.00;88.50;;;;;;5029753;28;20025;-79
2021/07/21 10:34:20;;;;;;;14.90;8.40;;;31.00;88.50;;;;;;5033798;28;20029;-78
2021/07/21 10:36:47;;;;;;;17.80;9.25;;;31.10;88.90;;;;;;5034474;28;20025;-79
2021/07/21 10:39:24;;;;;;;15.13;9.02;;;31.20;87.60;;;;;;5031875;28;20039;-78
2021/07/21 10:41:50;;;;;;;14.10;8.30;;;31.10;88.70;;;;;;5037660;28;20029;-79
2021/07/21 10:44:18;;;;;;;16.20;7.90;;;31.20;89.50;;;;;;5031921;28;20117;-80
2021/07/21 10:46:45;;;;;;;13.15;8.50;;;31.20;88.00;;;;;;5031806;28;20045;-81
2021/07/21 10:49:29;;;;;;;14.38;8.40;;;31.20;88.80;;;;;;5031548;28;20024;-81
2021/07/21 11:00:42;;;;;;;11.05;7.95;;;31.30;88.00;;;;;;5019116;28;20037;-85
2021/07/21 11:03:28;;;;;;;155.40;109.82;;;31.30;88.20;;;;;;5032857;28;20104;-88
2021/07/21 11:06:10;;;;;;;13.90;8.95;;;31.40;88.30;;;;;;5063064;28;20450;-84
2021/07/21 11:08:47;;;;;;;16.85;8.43;;;31.40;88.20;;;;;;5045958;28;20021;-91
2021/07/21 11:11:22;;;;;;;15.90;8.45;;;31.40;88.70;;;;;;5045210;28;20009;-85
2021/07/21 11:13:57;;;;;;;16.77;7.85;;;31.30;89.40;;;;;;5042015;28;20026;-91
2021/07/21 11:16:46;;;;;;;12.38;7.82;;;31.30;89.10;;;;;;5028556;28;20026;-92
2021/07/21 11:19:30;;;;;;;17.20;7.40;;;31.50;89.40;;;;;;5028259;28;20083;-82
2021/07/21 11:22:03;;;;;;;13.77;8.05;;;31.40;88.80;;;;;;5028411;28;20033;-86
2021/07/21 11:24:30;;;;;;;13.88;7.53;;;31.40;89.10;;;;;;5024361;28;20050;-88
2021/07/21 11:26:57;;;;;;;16.05;8.40;;;31.60;89.00;;;;;;5028780;28;20041;-88
2021/07/21 11:29:33;;;;;;;20.15;7.43;;;31.70;88.90;;;;;;5026046;28;20029;-85
2021/07/21 11:32:00;;;;;;;23.67;8.25;;;31.90;88.10;;;;;;5032502;28;20063;-82
2021/07/21 11:34:28;;;;;;;13.05;6.90;;;31.90;87.60;;;;;;5033626;28;20025;-86
2021/07/21 11:37:14;;;;;;;14.10;7.53;;;31.90;88.20;;;;;;5032320;28;20097;-81
2021/07/21 11:39:44;;;;;;;14.07;8.23;;;32.00;88.40;;;;;;5030403;28;20024;-81
2021/07/21 11:44:52;;;;;;;;;;;32.00;88.10;;;;;;5028325;28;20083;-90
2021/07/21 11:47:18;;;;;;;13.52;7.15;;;32.10;87.70;;;;;;5030517;28;19916;-81
2021/07/21 11:49:52;;;;;;;17.90;7.30;;;32.20;87.60;;;;;;5034328;28;20036;-91
2021/07/21 11:52:19;;;;;;;29.35;8.55;;;32.30;87.60;;;;;;5033794;28;20021;-87
2021/07/21 11:54:45;;;;;;;17.58;7.35;;;32.40;87.50;;;;;;5035559;28;20109;-89
2021/07/21 11:57:11;;;;;;;17.25;8.05;;;32.40;87.00;;;;;;5034793;28;20100;-90
2021/07/21 11:59:39;;;;;;;14.88;6.90;;;32.30;87.00;;;;;;5031715;28;20025;-79
2021/07/21 12:02:16;;;;;;;15.05;7.63;;;32.30;87.20;;;;;;5034064;28;20027;-84
2021/07/21 12:04:44;;;;;;;12.07;7.53;;;32.20;87.00;;;;;;5032547;28;20031;-86
2021/07/21 12:07:15;;;;;;;17.17;7.43;;;32.10;87.40;;;;;;5032033;28;20033;-82
2021/07/21 12:09:43;;;;;;;15.27;7.82;;;32.00;87.70;;;;;;5034285;28;20033;-82
2021/07/21 12:12:11;;;;;;;14.43;7.43;;;32.00;88.00;;;;;;5037671;28;20018;-89
2021/07/21 12:14:40;;;;;;;20.02;7.65;;;32.00;88.00;;;;;;5030220;28;20067;-80
2021/07/21 12:17:09;;;;;;;16.92;7.20;;;32.00;88.60;;;;;;5033377;28;20018;-82
2021/07/21 12:20:01;;;;;;;20.00;7.10;;;32.10;88.30;;;;;;5033411;28;20025;-79
2021/07/21 12:22:32;;;;;;;16.83;8.30;;;32.00;87.90;;;;;;5031806;28;20041;-79
2021/07/21 12:25:00;;;;;;;12.35;7.15;;;31.90;88.10;;;;;;5033869;28;20048;-86
2021/07/21 12:27:30;;;;;;;18.42;7.72;;;31.90;88.50;;;;;;5030146;28;20132;-80
2021/07/21 12:30:02;;;;;;;19.55;8.02;;;32.10;89.10;;;;;;5034394;28;20041;-79
2021/07/21 12:32:28;;;;;;;76.57;60.35;;;32.10;88.10;;;;;;5033806;28;20104;-80
2021/07/21 12:34:57;;;;;;;58.60;36.60;;;32.00;88.50;;;;;;5033580;28;20037;-77
2021/07/21 12:37:25;;;;;;;34.72;17.02;;;32.00;88.70;;;;;;5035829;28;20029;-79
2021/07/21 12:39:53;;;;;;;24.30;8.73;;;32.10;88.20;;;;;;5052427;28;20050;-79
2021/07/21 12:42:27;;;;;;;31.83;8.80;;;32.20;88.50;;;;;;5051748;28;20455;-79
2021/07/21 12:44:53;;;;;;;33.33;8.80;;;32.40;87.40;;;;;;5052111;28;20032;-80
2021/07/21 12:47:24;;;;;;;21.20;8.10;;;32.50;88.10;;;;;;5042990;28;20068;-81
2021/07/21 12:50:23;;;;;;;20.15;8.13;;;32.60;87.90;;;;;;5053454;28;20319;-79
2021/07/21 12:52:53;;;;;;;17.35;7.97;;;32.70;86.90;;;;;;5048507;28;20036;-79
2021/07/21 12:55:43;;;;;;;18.63;7.80;;;32.80;87.10;;;;;;5053163;28;20025;-78
2021/07/21 12:58:27;;;;;;;15.98;7.55;;;32.90;86.50;;;;;;5051973;28;20029;-79